sensor_id;sensor_type;location;lat;lon;timestamp;P1;durP1;ratioP1;P2;durP2;ratioP2
37383;SDS011;23258;49.718;11.082;2022-11-15T00:01:15;4.13;;;3.72;;
37383;SDS011;23258;49.718;11.082;2022-11-15T00:04:06;5.32;;;4.45;;
37383;SDS011;23258;49.718;11.082;2022-11-15T00:06:54;4.82;;;4.25;;
37383;SDS011;23258;49.718;11.082;2022-11-15T00:09:42;4.93;;;4.07;;
37383;SDS011;23258;49.718;11.082;2022-11-15T00:12:30;3.97;;;3.67;;
37383;SDS011;23258;49.718;11.082;2022-11-15T00:15:18;4.55;;;4.15;;
37383;SDS011;23258;49.718;11.082;2022-11-15T00:18:06;5.70;;;4.32;;
37383;SDS011;23258;49.718;11.082;2022-11-15T00:21:02;4.28;;;3.50;;
37383;SDS011;23258;49.718;11.082;2022-11-15T00:23:50;4.07;;;3.67;;
37383;SDS011;23258;49.718;11.082;2022-11-15T00:26:38;5.60;;;3.75;;
37383;SDS011;23258;49.718;11.082;2022-11-15T00:29:26;3.38;;;3.10;;
37383;SDS011;23258;49.718;11.082;2022-11-15T00:32:14;3.97;;;3.58;;
37383;SDS011;23258;49.718;11.082;2022-11-15T00:35:03;5.80;;;3.03;;
37383;SDS011;23258;49.718;11.082;2022-11-15T00:37:54;3.42;;;2.88;;
37383;SDS011;23258;49.718;11.082;2022-11-15T00:40:42;2.95;;;2.75;;
37383;SDS011;23258;49.718;11.082;2022-11-15T00:43:31;4.60;;;3.30;;
37383;SDS011;23258;49.718;11.082;2022-11-15T00:46:19;3.25;;;3.00;;
37383;SDS011;23258;49.718;11.082;2022-11-15T00:49:07;3.25;;;3.03;;
37383;SDS011;23258;49.718;11.082;2022-11-15T00:51:55;3.03;;;2.83;;
37383;SDS011;23258;49.718;11.082;2022-11-15T00:54:46;4.97;;;4.43;;
37383;SDS011;23258;49.718;11.082;2022-11-15T00:57:34;6.43;;;4.90;;
37383;SDS011;23258;49.718;11.082;2022-11-15T01:00:22;6.15;;;4.07;;
37383;SDS011;23258;49.718;11.082;2022-11-15T01:03:10;6.03;;;5.03;;
37383;SDS011;23258;49.718;11.082;2022-11-15T01:05:58;6.60;;;4.95;;
37383;SDS011;23258;49.718;11.082;2022-11-15T01:08:47;5.93;;;4.43;;
37383;SDS011;23258;49.718;11.082;2022-11-15T01:11:38;4.57;;;4.15;;
37383;SDS011;23258;49.718;11.082;2022-11-15T01:14:27;5.20;;;4.20;;
37383;SDS011;23258;49.718;11.082;2022-11-15T01:17:15;5.30;;;4.05;;
37383;SDS011;23258;49.718;11.082;2022-11-15T01:20:03;5.53;;;3.80;;
37383;SDS011;23258;49.718;11.082;2022-11-15T01:22:51;4.50;;;4.10;;
37383;SDS011;23258;49.718;11.082;2022-11-15T01:25:39;4.07;;;3.78;;
37383;SDS011;23258;49.718;11.082;2022-11-15T01:28:32;5.03;;;3.25;;
37383;SDS011;23258;49.718;11.082;2022-11-15T01:31:21;4.00;;;3.50;;
37383;SDS011;23258;49.718;11.082;2022-11-15T01:34:09;3.70;;;3.33;;
37383;SDS011;23258;49.718;11.082;2022-11-15T01:36:57;3.45;;;3.15;;
37383;SDS011;23258;49.718;11.082;2022-11-15T01:39:46;5.38;;;3.53;;
37383;SDS011;23258;49.718;11.082;2022-11-15T01:42:34;4.55;;;3.67;;
37383;SDS011;23258;49.718;11.082;2022-11-15T01:45:24;4.72;;;3.20;;
37383;SDS011;23258;49.718;11.082;2022-11-15T01:48:13;4.93;;;4.00;;
37383;SDS011;23258;49.718;11.082;2022-11-15T01:51:02;4.45;;;4.07;;
37383;SDS011;23258;49.718;11.082;2022-11-15T01:53:52;4.38;;;3.33;;
37383;SDS011;23258;49.718;11.082;2022-11-15T01:56:43;3.65;;;3.35;;
37383;SDS011;23258;49.718;11.082;2022-11-15T01:59:32;4.80;;;3.40;;
37383;SDS011;23258;49.718;11.082;2022-11-15T02:02:24;3.97;;;3.58;;
37383;SDS011;23258;49.718;11.082;2022-11-15T02:05:12;4.65;;;3.05;;
37383;SDS011;23258;49.718;11.082;2022-11-15T02:08:00;4.05;;;3.47;;
37383;SDS011;23258;49.718;11.082;2022-11-15T02:10:48;2.80;;;2.60;;
37383;SDS011;23258;49.718;11.082;2022-11-15T02:13:36;3.85;;;3.35;;
37383;SDS011;23258;49.718;11.082;2022-11-15T02:16:26;4.15;;;3.22;;
37383;SDS011;23258;49.718;11.082;2022-11-15T02:19:27;4.18;;;3.78;;
37383;SDS011;23258;49.718;11.082;2022-11-15T02:22:22;3.38;;;3.13;;
37383;SDS011;23258;49.718;11.082;2022-11-15T02:25:24;5.20;;;3.28;;
37383;SDS011;23258;49.718;11.082;2022-11-15T02:28:27;3.80;;;3.50;;
37383;SDS011;23258;49.718;11.082;2022-11-15T02:31:21;4.32;;;3.53;;
37383;SDS011;23258;49.718;11.082;2022-11-15T02:34:16;4.72;;;3.50;;
37383;SDS011;23258;49.718;11.082;2022-11-15T02:37:08;3.22;;;2.90;;
37383;SDS011;23258;49.718;11.082;2022-11-15T02:39:59;5.13;;;3.70;;
37383;SDS011;23258;49.718;11.082;2022-11-15T02:42:53;3.97;;;3.63;;
37383;SDS011;23258;49.718;11.082;2022-11-15T02:45:56;4.13;;;3.72;;
37383;SDS011;23258;49.718;11.082;2022-11-15T02:48:49;3.45;;;3.20;;
37383;SDS011;23258;49.718;11.082;2022-11-15T02:51:38;5.93;;;3.85;;
37383;SDS011;23258;49.718;11.082;2022-11-15T02:54:29;3.75;;;3.45;;
37383;SDS011;23258;49.718;11.082;2022-11-15T02:57:17;3.80;;;3.50;;
37383;SDS011;23258;49.718;11.082;2022-11-15T03:00:08;2.78;;;2.58;;
37383;SDS011;23258;49.718;11.082;2022-11-15T03:06:08;3.33;;;3.10;;
37383;SDS011;23258;49.718;11.082;2022-11-15T03:09:00;3.20;;;3.00;;
37383;SDS011;23258;49.718;11.082;2022-11-15T03:11:53;3.72;;;3.17;;
37383;SDS011;23258;49.718;11.082;2022-11-15T03:14:43;3.15;;;2.95;;
37383;SDS011;23258;49.718;11.082;2022-11-15T03:17:37;3.60;;;3.30;;
37383;SDS011;23258;49.718;11.082;2022-11-15T03:20:26;3.67;;;3.38;;
37383;SDS011;23258;49.718;11.082;2022-11-15T03:23:21;3.58;;;3.30;;
37383;SDS011;23258;49.718;11.082;2022-11-15T03:26:10;3.25;;;2.95;;
37383;SDS011;23258;49.718;11.082;2022-11-15T03:29:00;2.70;;;2.55;;
37383;SDS011;23258;49.718;11.082;2022-11-15T03:31:49;3.40;;;3.15;;
37383;SDS011;23258;49.718;11.082;2022-11-15T03:34:39;3.40;;;3.08;;
37383;SDS011;23258;49.718;11.082;2022-11-15T03:37:30;4.30;;;3.50;;
37383;SDS011;23258;49.718;11.082;2022-11-15T03:40:22;3.40;;;3.00;;
37383;SDS011;23258;49.718;11.082;2022-11-15T03:43:14;3.30;;;2.97;;
37383;SDS011;23258;49.718;11.082;2022-11-15T03:46:04;3.72;;;3.13;;
37383;SDS011;23258;49.718;11.082;2022-11-15T03:48:54;3.28;;;3.08;;
37383;SDS011;23258;49.718;11.082;2022-11-15T03:51:45;3.13;;;2.83;;
37383;SDS011;23258;49.718;11.082;2022-11-15T03:54:33;4.05;;;3.65;;
37383;SDS011;23258;49.718;11.082;2022-11-15T03:57:24;3.35;;;3.05;;
37383;SDS011;23258;49.718;11.082;2022-11-15T04:00:12;3.20;;;3.00;;
37383;SDS011;23258;49.718;11.082;2022-11-15T04:03:00;3.20;;;3.00;;
37383;SDS011;23258;49.718;11.082;2022-11-15T04:05:48;4.32;;;2.92;;
37383;SDS011;23258;49.718;11.082;2022-11-15T04:08:36;4.05;;;3.65;;
37383;SDS011;23258;49.718;11.082;2022-11-15T04:11:25;3.50;;;3.03;;
37383;SDS011;23258;49.718;11.082;2022-11-15T04:14:15;4.22;;;3.10;;
37383;SDS011;23258;49.718;11.082;2022-11-15T04:17:04;3.05;;;2.72;;
37383;SDS011;23258;49.718;11.082;2022-11-15T04:19:52;3.60;;;2.88;;
37383;SDS011;23258;49.718;11.082;2022-11-15T04:22:52;3.15;;;2.88;;
37383;SDS011;23258;49.718;11.082;2022-11-15T04:25:54;3.38;;;3.08;;
37383;SDS011;23258;49.718;11.082;2022-11-15T04:28:42;3.95;;;3.65;;
37383;SDS011;23258;49.718;11.082;2022-11-15T04:31:45;3.10;;;2.80;;
37383;SDS011;23258;49.718;11.082;2022-11-15T04:34:33;4.38;;;3.13;;
37383;SDS011;23258;49.718;11.082;2022-11-15T04:37:23;3.60;;;3.30;;
37383;SDS011;23258;49.718;11.082;2022-11-15T04:40:11;2.97;;;2.78;;
37383;SDS011;23258;49.718;11.082;2022-11-15T04:42:59;3.28;;;2.97;;
37383;SDS011;23258;49.718;11.082;2022-11-15T04:45:48;4.22;;;3.25;;
37383;SDS011;23258;49.718;11.082;2022-11-15T04:48:39;3.35;;;3.05;;
37383;SDS011;23258;49.718;11.082;2022-11-15T04:51:27;4.63;;;3.33;;
37383;SDS011;23258;49.718;11.082;2022-11-15T04:54:15;4.67;;;3.77;;
37383;SDS011;23258;49.718;11.082;2022-11-15T04:57:03;3.43;;;3.20;;
37383;SDS011;23258;49.718;11.082;2022-11-15T04:59:51;5.77;;;4.13;;
37383;SDS011;23258;49.718;11.082;2022-11-15T05:02:39;4.50;;;4.10;;
37383;SDS011;23258;49.718;11.082;2022-11-15T05:05:42;3.60;;;3.30;;
37383;SDS011;23258;49.718;11.082;2022-11-15T05:08:30;4.07;;;3.58;;
37383;SDS011;23258;49.718;11.082;2022-11-15T05:11:18;3.95;;;3.60;;
37383;SDS011;23258;49.718;11.082;2022-11-15T05:14:06;4.07;;;3.47;;
37383;SDS011;23258;49.718;11.082;2022-11-15T05:16:54;4.25;;;2.88;;
37383;SDS011;23258;49.718;11.082;2022-11-15T05:19:42;3.95;;;3.60;;
37383;SDS011;23258;49.718;11.082;2022-11-15T05:22:33;3.88;;;3.55;;
37383;SDS011;23258;49.718;11.082;2022-11-15T05:25:21;4.90;;;3.75;;
37383;SDS011;23258;49.718;11.082;2022-11-15T05:28:10;3.73;;;3.43;;
37383;SDS011;23258;49.718;11.082;2022-11-15T05:31:00;4.82;;;4.15;;
37383;SDS011;23258;49.718;11.082;2022-11-15T05:33:48;6.43;;;5.03;;
37383;SDS011;23258;49.718;11.082;2022-11-15T05:36:38;4.82;;;4.35;;
37383;SDS011;23258;49.718;11.082;2022-11-15T05:39:30;5.33;;;4.83;;
37383;SDS011;23258;49.718;11.082;2022-11-15T05:42:18;4.77;;;4.20;;
37383;SDS011;23258;49.718;11.082;2022-11-15T05:45:07;4.70;;;4.30;;
37383;SDS011;23258;49.718;11.082;2022-11-15T05:47:56;6.40;;;4.63;;
37383;SDS011;23258;49.718;11.082;2022-11-15T05:50:45;4.70;;;4.20;;
37383;SDS011;23258;49.718;11.082;2022-11-15T05:53:34;5.77;;;4.37;;
37383;SDS011;23258;49.718;11.082;2022-11-15T05:56:25;5.72;;;4.90;;
37383;SDS011;23258;49.718;11.082;2022-11-15T05:59:13;4.38;;;3.85;;
37383;SDS011;23258;49.718;11.082;2022-11-15T06:02:01;4.68;;;4.13;;
37383;SDS011;23258;49.718;11.082;2022-11-15T06:04:50;4.77;;;4.37;;
37383;SDS011;23258;49.718;11.082;2022-11-15T06:07:38;4.87;;;3.87;;
37383;SDS011;23258;49.718;11.082;2022-11-15T06:10:26;4.93;;;4.53;;
37383;SDS011;23258;49.718;11.082;2022-11-15T06:13:17;5.25;;;4.75;;
37383;SDS011;23258;49.718;11.082;2022-11-15T06:16:05;5.55;;;4.55;;
37383;SDS011;23258;49.718;11.082;2022-11-15T06:18:53;5.05;;;4.20;;
37383;SDS011;23258;49.718;11.082;2022-11-15T06:21:42;4.37;;;3.87;;
37383;SDS011;23258;49.718;11.082;2022-11-15T06:24:31;3.10;;;2.90;;
37383;SDS011;23258;49.718;11.082;2022-11-15T06:27:19;3.20;;;2.90;;
37383;SDS011;23258;49.718;11.082;2022-11-15T06:30:10;3.50;;;3.20;;
37383;SDS011;23258;49.718;11.082;2022-11-15T06:32:59;3.97;;;3.43;;
37383;SDS011;23258;49.718;11.082;2022-11-15T06:35:47;3.47;;;3.08;;
37383;SDS011;23258;49.718;11.082;2022-11-15T06:38:35;3.80;;;3.50;;
37383;SDS011;23258;49.718;11.082;2022-11-15T06:41:24;4.28;;;3.83;;
37383;SDS011;23258;49.718;11.082;2022-11-15T06:44:12;4.70;;;4.30;;
37383;SDS011;23258;49.718;11.082;2022-11-15T06:47:02;6.35;;;4.50;;
37383;SDS011;23258;49.718;11.082;2022-11-15T06:49:50;5.40;;;4.88;;
37383;SDS011;23258;49.718;11.082;2022-11-15T06:52:39;5.55;;;5.00;;
37383;SDS011;23258;49.718;11.082;2022-11-15T06:55:27;4.47;;;4.07;;
37383;SDS011;23258;49.718;11.082;2022-11-15T06:58:15;5.13;;;4.63;;
37383;SDS011;23258;49.718;11.082;2022-11-15T07:01:05;5.90;;;5.13;;
37383;SDS011;23258;49.718;11.082;2022-11-15T07:03:56;4.70;;;4.30;;
37383;SDS011;23258;49.718;11.082;2022-11-15T07:06:45;6.57;;;5.03;;
37383;SDS011;23258;49.718;11.082;2022-11-15T07:09:34;5.75;;;4.90;;
37383;SDS011;23258;49.718;11.082;2022-11-15T07:12:22;5.32;;;4.78;;
37383;SDS011;23258;49.718;11.082;2022-11-15T07:15:10;5.82;;;4.78;;
37383;SDS011;23258;49.718;11.082;2022-11-15T07:18:00;8.35;;;5.72;;
37383;SDS011;23258;49.718;11.082;2022-11-15T07:20:51;5.25;;;4.63;;
37383;SDS011;23258;49.718;11.082;2022-11-15T07:23:39;5.15;;;4.68;;
37383;SDS011;23258;49.718;11.082;2022-11-15T07:26:28;4.70;;;3.40;;
37383;SDS011;23258;49.718;11.082;2022-11-15T07:29:16;3.15;;;2.95;;
37383;SDS011;23258;49.718;11.082;2022-11-15T07:32:04;3.20;;;2.90;;
37383;SDS011;23258;49.718;11.082;2022-11-15T07:34:51;3.05;;;2.85;;
37383;SDS011;23258;49.718;11.082;2022-11-15T07:37:43;4.22;;;3.83;;
37383;SDS011;23258;49.718;11.082;2022-11-15T07:40:31;3.05;;;2.75;;
37383;SDS011;23258;49.718;11.082;2022-11-15T07:43:19;3.20;;;2.90;;
37383;SDS011;23258;49.718;11.082;2022-11-15T07:46:08;3.33;;;2.97;;
37383;SDS011;23258;49.718;11.082;2022-11-15T07:48:56;3.20;;;2.95;;
37383;SDS011;23258;49.718;11.082;2022-11-15T07:51:45;2.65;;;2.45;;
37383;SDS011;23258;49.718;11.082;2022-11-15T07:54:36;3.05;;;2.80;;
37383;SDS011;23258;49.718;11.082;2022-11-15T07:57:24;2.70;;;2.50;;
37383;SDS011;23258;49.718;11.082;2022-11-15T08:00:13;4.63;;;3.38;;
37383;SDS011;23258;49.718;11.082;2022-11-15T08:03:02;6.40;;;4.40;;
37383;SDS011;23258;49.718;11.082;2022-11-15T08:05:51;4.03;;;3.63;;
37383;SDS011;23258;49.718;11.082;2022-11-15T08:08:39;5.50;;;4.47;;
37383;SDS011;23258;49.718;11.082;2022-11-15T08:11:29;5.85;;;4.60;;
37383;SDS011;23258;49.718;11.082;2022-11-15T08:14:17;3.95;;;3.38;;
37383;SDS011;23258;49.718;11.082;2022-11-15T08:17:07;4.13;;;3.78;;
37383;SDS011;23258;49.718;11.082;2022-11-15T08:19:55;4.60;;;4.20;;
37383;SDS011;23258;49.718;11.082;2022-11-15T08:22:44;4.43;;;4.03;;
37383;SDS011;23258;49.718;11.082;2022-11-15T08:25:32;5.25;;;4.65;;
37383;SDS011;23258;49.718;11.082;2022-11-15T08:28:24;5.00;;;4.50;;
37383;SDS011;23258;49.718;11.082;2022-11-15T08:31:13;5.03;;;4.60;;
37383;SDS011;23258;49.718;11.082;2022-11-15T08:34:02;6.05;;;4.75;;
37383;SDS011;23258;49.718;11.082;2022-11-15T08:36:50;5.53;;;5.05;;
37383;SDS011;23258;49.718;11.082;2022-11-15T08:39:38;5.53;;;4.82;;
37383;SDS011;23258;49.718;11.082;2022-11-15T08:42:27;4.20;;;3.78;;
37383;SDS011;23258;49.718;11.082;2022-11-15T08:45:17;6.30;;;5.53;;
37383;SDS011;23258;49.718;11.082;2022-11-15T08:48:05;5.45;;;4.95;;
37383;SDS011;23258;49.718;11.082;2022-11-15T08:50:54;5.13;;;4.73;;
37383;SDS011;23258;49.718;11.082;2022-11-15T08:53:43;5.03;;;4.55;;
37383;SDS011;23258;49.718;11.082;2022-11-15T08:56:31;4.30;;;3.90;;
37383;SDS011;23258;49.718;11.082;2022-11-15T08:59:19;4.80;;;4.32;;
37383;SDS011;23258;49.718;11.082;2022-11-15T09:02:12;4.05;;;3.63;;
37383;SDS011;23258;49.718;11.082;2022-11-15T09:05:01;4.45;;;3.90;;
37383;SDS011;23258;49.718;11.082;2022-11-15T09:07:52;5.88;;;4.40;;
37383;SDS011;23258;49.718;11.082;2022-11-15T09:10:40;4.27;;;3.53;;
37383;SDS011;23258;49.718;11.082;2022-11-15T09:13:28;4.85;;;3.72;;
37383;SDS011;23258;49.718;11.082;2022-11-15T09:16:17;6.75;;;4.15;;
37383;SDS011;23258;49.718;11.082;2022-11-15T09:19:07;4.63;;;4.22;;
37383;SDS011;23258;49.718;11.082;2022-11-15T09:21:56;4.03;;;3.72;;
37383;SDS011;23258;49.718;11.082;2022-11-15T09:24:44;4.68;;;4.28;;
37383;SDS011;23258;49.718;11.082;2022-11-15T09:27:32;5.32;;;4.43;;
37383;SDS011;23258;49.718;11.082;2022-11-15T09:30:20;4.15;;;3.83;;
37383;SDS011;23258;49.718;11.082;2022-11-15T09:33:08;3.47;;;3.17;;
37383;SDS011;23258;49.718;11.082;2022-11-15T09:36:02;4.90;;;3.63;;
37383;SDS011;23258;49.718;11.082;2022-11-15T09:38:50;5.20;;;2.97;;
37383;SDS011;23258;49.718;11.082;2022-11-15T09:44:50;3.50;;;3.25;;
37383;SDS011;23258;49.718;11.082;2022-11-15T09:47:48;2.90;;;2.60;;
37383;SDS011;23258;49.718;11.082;2022-11-15T09:50:43;3.10;;;2.90;;
37383;SDS011;23258;49.718;11.082;2022-11-15T09:53:21;3.10;;;2.90;;
37383;SDS011;23258;49.718;11.082;2022-11-15T09:56:14;2.88;;;2.67;;
37383;SDS011;23258;49.718;11.082;2022-11-15T09:58:44;3.72;;;2.80;;
37383;SDS011;23258;49.718;11.082;2022-11-15T10:01:16;3.53;;;2.85;;
37383;SDS011;23258;49.718;11.082;2022-11-15T10:03:47;3.13;;;2.92;;
37383;SDS011;23258;49.718;11.082;2022-11-15T10:06:22;2.88;;;2.67;;
37383;SDS011;23258;49.718;11.082;2022-11-15T10:08:57;3.08;;;2.55;;
37383;SDS011;23258;49.718;11.082;2022-11-15T10:11:30;2.95;;;2.75;;
37383;SDS011;23258;49.718;11.082;2022-11-15T10:14:08;3.05;;;2.85;;
37383;SDS011;23258;49.718;11.082;2022-11-15T10:19:26;3.10;;;2.60;;
37383;SDS011;23258;49.718;11.082;2022-11-15T10:22:00;3.45;;;3.15;;
37383;SDS011;23258;49.718;11.082;2022-11-15T10:24:37;2.22;;;2.13;;
37383;SDS011;23258;49.718;11.082;2022-11-15T10:27:09;2.60;;;2.40;;
37383;SDS011;23258;49.718;11.082;2022-11-15T10:29:43;2.92;;;2.47;;
37383;SDS011;23258;49.718;11.082;2022-11-15T10:32:13;2.83;;;2.63;;
37383;SDS011;23258;49.718;11.082;2022-11-15T10:34:43;4.97;;;2.57;;
37383;SDS011;23258;49.718;11.082;2022-11-15T10:37:13;2.83;;;2.63;;
37383;SDS011;23258;49.718;11.082;2022-11-15T10:39:49;3.80;;;2.85;;
37383;SDS011;23258;49.718;11.082;2022-11-15T10:42:31;3.35;;;2.45;;
37383;SDS011;23258;49.718;11.082;2022-11-15T10:45:00;2.42;;;2.22;;
37383;SDS011;23258;49.718;11.082;2022-11-15T10:47:30;2.80;;;2.60;;
37383;SDS011;23258;49.718;11.082;2022-11-15T10:50:06;3.10;;;2.53;;
37383;SDS011;23258;49.718;11.082;2022-11-15T10:52:36;2.47;;;2.28;;
37383;SDS011;23258;49.718;11.082;2022-11-15T10:55:26;2.47;;;2.35;;
37383;SDS011;23258;49.718;11.082;2022-11-15T10:57:59;2.88;;;2.67;;
37383;SDS011;23258;49.718;11.082;2022-11-15T11:00:30;2.13;;;2.03;;
37383;SDS011;23258;49.718;11.082;2022-11-15T11:03:01;2.75;;;2.55;;
37383;SDS011;23258;49.718;11.082;2022-11-15T11:05:34;2.90;;;2.70;;
37383;SDS011;23258;49.718;11.082;2022-11-15T11:08:19;2.72;;;2.53;;
37383;SDS011;23258;49.718;11.082;2022-11-15T11:10:54;2.97;;;2.65;;
37383;SDS011;23258;49.718;11.082;2022-11-15T11:13:29;3.33;;;2.17;;
37383;SDS011;23258;49.718;11.082;2022-11-15T11:16:04;2.28;;;2.17;;
37383;SDS011;23258;49.718;11.082;2022-11-15T11:18:38;2.80;;;2.15;;
37383;SDS011;23258;49.718;11.082;2022-11-15T11:21:13;2.17;;;2.08;;
37383;SDS011;23258;49.718;11.082;2022-11-15T11:23:45;2.53;;;2.33;;
37383;SDS011;23258;49.718;11.082;2022-11-15T11:26:24;2.13;;;2.03;;
37383;SDS011;23258;49.718;11.082;2022-11-15T11:28:59;1.90;;;1.80;;
37383;SDS011;23258;49.718;11.082;2022-11-15T11:31:32;2.63;;;1.92;;
37383;SDS011;23258;49.718;11.082;2022-11-15T11:34:10;3.08;;;1.75;;
37383;SDS011;23258;49.718;11.082;2022-11-15T11:36:44;1.98;;;1.88;;
37383;SDS011;23258;49.718;11.082;2022-11-15T11:39:18;3.60;;;2.28;;
37383;SDS011;23258;49.718;11.082;2022-11-15T11:41:55;2.42;;;1.98;;
37383;SDS011;23258;49.718;11.082;2022-11-15T11:44:29;2.75;;;2.22;;
37383;SDS011;23258;49.718;11.082;2022-11-15T11:47:00;2.15;;;1.88;;
37383;SDS011;23258;49.718;11.082;2022-11-15T11:49:32;2.08;;;1.67;;
37383;SDS011;23258;49.718;11.082;2022-11-15T11:52:03;2.90;;;2.13;;
37383;SDS011;23258;49.718;11.082;2022-11-15T11:54:39;2.20;;;2.10;;
37383;SDS011;23258;49.718;11.082;2022-11-15T11:57:15;2.75;;;2.17;;
37383;SDS011;23258;49.718;11.082;2022-11-15T11:59:48;2.08;;;1.83;;
37383;SDS011;23258;49.718;11.082;2022-11-15T12:02:21;2.17;;;2.08;;
37383;SDS011;23258;49.718;11.082;2022-11-15T12:04:56;2.35;;;2.15;;
37383;SDS011;23258;49.718;11.082;2022-11-15T12:07:27;2.38;;;2.17;;
37383;SDS011;23258;49.718;11.082;2022-11-15T12:09:59;2.38;;;2.20;;
37383;SDS011;23258;49.718;11.082;2022-11-15T12:12:35;2.00;;;1.90;;
37383;SDS011;23258;49.718;11.082;2022-11-15T12:15:10;3.17;;;2.28;;
37383;SDS011;23258;49.718;11.082;2022-11-15T12:17:41;2.08;;;1.88;;
37383;SDS011;23258;49.718;11.082;2022-11-15T12:20:15;2.50;;;2.03;;
37383;SDS011;23258;49.718;11.082;2022-11-15T12:22:47;1.80;;;1.70;;
37383;SDS011;23258;49.718;11.082;2022-11-15T12:25:20;1.98;;;1.88;;
37383;SDS011;23258;49.718;11.082;2022-11-15T12:27:53;2.40;;;2.30;;
37383;SDS011;23258;49.718;11.082;2022-11-15T12:30:24;2.20;;;2.05;;
37383;SDS011;23258;49.718;11.082;2022-11-15T12:32:55;1.73;;;1.63;;
37383;SDS011;23258;49.718;11.082;2022-11-15T12:35:30;2.55;;;1.75;;
37383;SDS011;23258;49.718;11.082;2022-11-15T12:38:01;2.15;;;1.98;;
37383;SDS011;23258;49.718;11.082;2022-11-15T12:40:32;1.90;;;1.73;;
37383;SDS011;23258;49.718;11.082;2022-11-15T12:43:37;2.35;;;2.10;;
37383;SDS011;23258;49.718;11.082;2022-11-15T12:46:10;1.83;;;1.73;;
37383;SDS011;23258;49.718;11.082;2022-11-15T12:59:52;1.50;;;1.40;;
37383;SDS011;23258;49.718;11.082;2022-11-15T13:02:24;1.60;;;1.50;;
37383;SDS011;23258;49.718;11.082;2022-11-15T13:04:55;1.60;;;1.50;;
37383;SDS011;23258;49.718;11.082;2022-11-15T13:07:57;1.40;;;1.30;;
37383;SDS011;23258;49.718;11.082;2022-11-15T13:10:31;1.45;;;1.38;;
37383;SDS011;23258;49.718;11.082;2022-11-15T13:13:02;1.55;;;1.50;;
37383;SDS011;23258;49.718;11.082;2022-11-15T13:15:40;1.63;;;1.52;;
37383;SDS011;23258;49.718;11.082;2022-11-15T13:18:25;1.80;;;1.70;;
37383;SDS011;23258;49.718;11.082;2022-11-15T13:20:56;1.40;;;1.35;;
37383;SDS011;23258;49.718;11.082;2022-11-15T13:23:28;1.73;;;1.63;;
37383;SDS011;23258;49.718;11.082;2022-11-15T13:26:12;2.42;;;1.90;;
37383;SDS011;23258;49.718;11.082;2022-11-15T13:28:47;1.98;;;1.77;;
37383;SDS011;23258;49.718;11.082;2022-11-15T13:31:26;1.30;;;1.30;;
37383;SDS011;23258;49.718;11.082;2022-11-15T13:33:57;2.95;;;1.52;;
37383;SDS011;23258;49.718;11.082;2022-11-15T13:36:28;1.08;;;1.08;;
37383;SDS011;23258;49.718;11.082;2022-11-15T13:39:00;2.90;;;1.88;;
37383;SDS011;23258;49.718;11.082;2022-11-15T13:41:31;2.20;;;1.92;;
37383;SDS011;23258;49.718;11.082;2022-11-15T13:44:01;1.63;;;1.52;;
37383;SDS011;23258;49.718;11.082;2022-11-15T13:46:34;1.77;;;1.67;;
37383;SDS011;23258;49.718;11.082;2022-11-15T13:49:04;1.48;;;1.38;;
37383;SDS011;23258;49.718;11.082;2022-11-15T13:51:37;1.70;;;1.60;;
37383;SDS011;23258;49.718;11.082;2022-11-15T13:54:08;2.13;;;2.03;;
37383;SDS011;23258;49.718;11.082;2022-11-15T13:56:38;1.75;;;1.35;;
37383;SDS011;23258;49.718;11.082;2022-11-15T13:59:10;1.60;;;1.50;;
37383;SDS011;23258;49.718;11.082;2022-11-15T14:01:46;1.70;;;1.60;;
37383;SDS011;23258;49.718;11.082;2022-11-15T14:04:17;2.13;;;1.92;;
37383;SDS011;23258;49.718;11.082;2022-11-15T14:06:49;1.85;;;1.75;;
37383;SDS011;23258;49.718;11.082;2022-11-15T14:09:30;1.60;;;1.50;;
37383;SDS011;23258;49.718;11.082;2022-11-15T14:12:01;1.92;;;1.83;;
37383;SDS011;23258;49.718;11.082;2022-11-15T14:14:31;1.70;;;1.60;;
37383;SDS011;23258;49.718;11.082;2022-11-15T14:17:03;2.33;;;2.08;;
37383;SDS011;23258;49.718;11.082;2022-11-15T14:19:34;2.55;;;2.05;;
37383;SDS011;23258;49.718;11.082;2022-11-15T14:22:11;2.50;;;2.30;;
37383;SDS011;23258;49.718;11.082;2022-11-15T14:24:42;2.20;;;2.00;;
37383;SDS011;23258;49.718;11.082;2022-11-15T14:27:19;2.88;;;2.67;;
37383;SDS011;23258;49.718;11.082;2022-11-15T14:29:49;2.28;;;2.03;;
37383;SDS011;23258;49.718;11.082;2022-11-15T14:32:22;2.60;;;2.40;;
37383;SDS011;23258;49.718;11.082;2022-11-15T14:34:54;2.53;;;2.33;;
37383;SDS011;23258;49.718;11.082;2022-11-15T14:37:24;3.30;;;3.00;;
37383;SDS011;23258;49.718;11.082;2022-11-15T14:39:54;2.75;;;2.40;;
37383;SDS011;23258;49.718;11.082;2022-11-15T14:42:24;3.08;;;2.60;;
37383;SDS011;23258;49.718;11.082;2022-11-15T14:44:54;2.83;;;2.63;;
37383;SDS011;23258;49.718;11.082;2022-11-15T14:47:26;2.65;;;2.40;;
37383;SDS011;23258;49.718;11.082;2022-11-15T14:49:55;2.35;;;2.15;;
37383;SDS011;23258;49.718;11.082;2022-11-15T14:52:26;3.25;;;2.92;;
37383;SDS011;23258;49.718;11.082;2022-11-15T14:54:58;3.47;;;2.38;;
37383;SDS011;23258;49.718;11.082;2022-11-15T14:57:28;2.95;;;2.50;;
37383;SDS011;23258;49.718;11.082;2022-11-15T14:59:58;2.65;;;2.45;;
37383;SDS011;23258;49.718;11.082;2022-11-15T15:02:41;2.83;;;2.40;;
37383;SDS011;23258;49.718;11.082;2022-11-15T15:05:15;2.55;;;2.35;;
37383;SDS011;23258;49.718;11.082;2022-11-15T15:07:45;4.72;;;3.00;;
37383;SDS011;23258;49.718;11.082;2022-11-15T15:10:15;3.05;;;2.78;;
37383;SDS011;23258;49.718;11.082;2022-11-15T15:13:05;3.38;;;3.03;;
37383;SDS011;23258;49.718;11.082;2022-11-15T15:15:35;2.85;;;2.63;;
37383;SDS011;23258;49.718;11.082;2022-11-15T15:18:08;3.65;;;2.83;;
37383;SDS011;23258;49.718;11.082;2022-11-15T15:20:38;4.50;;;3.17;;
37383;SDS011;23258;49.718;11.082;2022-11-15T15:23:10;3.08;;;2.78;;
37383;SDS011;23258;49.718;11.082;2022-11-15T15:25:43;4.03;;;3.47;;
37383;SDS011;23258;49.718;11.082;2022-11-15T15:28:15;3.58;;;3.28;;
37383;SDS011;23258;49.718;11.082;2022-11-15T15:30:45;3.10;;;2.75;;
37383;SDS011;23258;49.718;11.082;2022-11-15T15:33:18;3.35;;;2.90;;
37383;SDS011;23258;49.718;11.082;2022-11-15T15:35:48;3.47;;;3.05;;
37383;SDS011;23258;49.718;11.082;2022-11-15T15:38:17;3.58;;;2.90;;
37383;SDS011;23258;49.718;11.082;2022-11-15T15:40:48;3.42;;;3.13;;
37383;SDS011;23258;49.718;11.082;2022-11-15T15:43:17;2.97;;;2.67;;
37383;SDS011;23258;49.718;11.082;2022-11-15T15:45:47;3.42;;;3.10;;
37383;SDS011;23258;49.718;11.082;2022-11-15T15:48:19;3.72;;;2.80;;
37383;SDS011;23258;49.718;11.082;2022-11-15T15:50:49;3.65;;;3.20;;
37383;SDS011;23258;49.718;11.082;2022-11-15T15:53:18;4.15;;;2.67;;
37383;SDS011;23258;49.718;11.082;2022-11-15T15:55:48;3.28;;;2.97;;
37383;SDS011;23258;49.718;11.082;2022-11-15T15:58:17;2.60;;;2.40;;
37383;SDS011;23258;49.718;11.082;2022-11-15T16:00:47;3.60;;;2.70;;
37383;SDS011;23258;49.718;11.082;2022-11-15T16:03:19;3.92;;;3.60;;
37383;SDS011;23258;49.718;11.082;2022-11-15T16:05:50;4.55;;;3.55;;
37383;SDS011;23258;49.718;11.082;2022-11-15T16:08:21;5.50;;;4.20;;
37383;SDS011;23258;49.718;11.082;2022-11-15T16:10:50;3.63;;;3.20;;
37383;SDS011;23258;49.718;11.082;2022-11-15T16:13:20;3.85;;;3.38;;
37383;SDS011;23258;49.718;11.082;2022-11-15T16:15:50;3.97;;;3.35;;
37383;SDS011;23258;49.718;11.082;2022-11-15T16:18:24;13.35;;;8.25;;
37383;SDS011;23258;49.718;11.082;2022-11-15T16:20:53;22.90;;;16.15;;
37383;SDS011;23258;49.718;11.082;2022-11-15T16:23:23;10.88;;;9.27;;
37383;SDS011;23258;49.718;11.082;2022-11-15T16:25:53;7.60;;;6.90;;